Details of the vacancies in KMRL will be updated shortly. Details of the vacancies in Water Metro will be updated shortly. Site under modification. Vacancies will be published soon.

Opportunities

To know the detailed description of a Notification, please click on the Notification Ref. link on each row. To know more details of the post such as Qualification required, Experience requirement, Scale of Pay, Max Age, etc. please click on button, which is shown against each post (on the right side of the table, beside 'Apply Now' button). Then proceed after reading the instructions.

Sl.No. Company Notification Date Notification Ref. Vac. Type Vac. ID Vacancy Name No of Vac. Appl. Fee Appl. Start Date Appl. End Date Status
 
1 KMRL 30 Jul 2020 KMRL/HR/20200702 Regular 250 Manager (Civil 1) 1 ₹0/- 30 Jul 2020 11:00 am 12 Aug 2020 11:59 pm  
2 KMRL 30 Jul 2020 KMRL/HR/20200702 Regular 251 Manager (Civil 2) 1 ₹0/- 30 Jul 2020 11:00 am 12 Aug 2020 11:59 pm  
3 KMRL 30 Jul 2020 KMRL/HR/20200702 Regular 252 Manager (Construction) 2 ₹0/- 30 Jul 2020 10:00 am 12 Aug 2020 11:59 pm  
4 KMRL 30 Jul 2020 KMRL/HR/20200702 Regular 253 Executive (Architect) 1 ₹0/- 30 Jul 2020 11:00 am 12 Aug 2020 11:59 pm  
1 to 1 of 1 Records
Results per page
Sl.No. Company Notification Date Notification Ref. Vac. Type Vac. ID Vacancy Name No of Vacancies Appl. Start Date Appl. End Date
 
1 KMRL 15 May 2020 KMRL/HR/20200501 Regular 236 DGM (RS) 1 15 May 2020 12:00 am 27 May 2020 11:59 pm      Under Process
2 KMRL 15 May 2020 KMRL/HR/20200501 Regular 238 DGM (E&M) 1 15 May 2020 12:00 am 27 May 2020 11:59 pm      Under Process
3 KMRL 15 May 2020 KMRL/HR/20200501 Regular 239 Manager(E&M) 3 15 May 2020 12:00 am 27 May 2020 11:59 pm      Under Process
4 KMRL 15 May 2020 KMRL/HR/20200501 Regular 240 Manager (L&E) 1 15 May 2020 12:00 am 27 May 2020 11:59 pm      Under Process
5 KMRL 15 May 2020 KMRL/HR/20200501 Regular 241 Manager (RS) 1 15 May 2020 12:00 am 27 May 2020 11:59 pm      Under Process
6 KMRL 18 May 2020 KMRL/HR/20200502 Contract 243 Manager (Q&S) - On Contract 1 18 May 2020 12:00 am 27 May 2020 11:59 pm      Under Process
7 KMRL 15 May 2020 KMRL/HR/20200501 Regular 237 DGM (P&T) 2 15 May 2020 12:00 am 27 May 2020 11:58 pm      Under Process
1 to 7 of 7 Records
Results per page
Sl.No. Company Notification Date Notification Ref. Vac. Type Vac. ID Vacancy Name No of Vacancies Appl. Start Date Appl. End Date
  
141 KMRL 18 Jun 2015 KMRL/HR/20150602 Contract 36 GM (Contracts) 1 18 Jun 2015 10:00 am 17 Jul 2015 11:59 pm      None found suitable
142 KMRL 24 Jun 2015 KMRL/HR/20150603 Contract 37 Executive Trainee 1 24 Jun 2015 10:00 am 17 Jul 2015 11:59 pm      Selected
143 KMRL 15 May 2015 KMRL/HR/20150501 Contract 2 AGM (Civil) 1 15 May 2015 10:00 am 10 Jun 2015 11:59 pm      None found suitable
144 KMRL 15 May 2015 KMRL/HR/20150501 Contract 3 MGR (Civil) 2 15 May 2015 10:00 am 10 Jun 2015 11:59 pm      Selected
145 KMRL 23 Feb 2015 KMRL/HR/20150201 Regular 4 AGM (Operations) 1 23 Feb 2015 10:00 am 18 Mar 2015 11:59 pm      Cancelled
146 KMRL 23 Feb 2015 KMRL/HR/20150201 Regular 5 DGM (Procurement) 1 23 Feb 2015 10:00 am 18 Mar 2015 11:59 pm      Selected
147 KMRL 23 Feb 2015 KMRL/HR/20150201 Regular 6 DGM (Operations) 1 23 Feb 2015 10:00 am 18 Mar 2015 11:59 pm      Selected
148 KMRL 23 Feb 2015 KMRL/HR/20150201 Regular 7 Chief Controller 5 23 Feb 2015 10:00 am 18 Mar 2015 11:59 pm      Selected
149 KMRL 23 Feb 2015 KMRL/HR/20150201 Regular 8 Traffic Controller 10 23 Feb 2015 10:00 am 18 Mar 2015 11:59 pm      Selected
150 KMRL 23 Feb 2015 KMRL/HR/20150201 Regular 9 Power Controller 2 23 Feb 2015 10:00 am 18 Mar 2015 11:59 pm      Selected
141 to 150 of 176 Records
Results per page